Terminal Aerodrome Forecast
Issued by NWS

Home | Current Version | Previous Version | Text Only | Print | Product List | Glossary On
Versions: 1 2 3 4 5 6 7 8 9 10 11 12
000
FTUS44 KLIX 301736
TAFMCB
TAF
KMCB 301736Z 3018/3118 20003KT P6SM SCT060
     FM311000 00000KT 3SM BR FEW250
     FM311400 30003KT P6SM FEW250=

USA.gov is the U.S. government's official web portal to all federal, state and local government web resources and services.